Aviation Digital Data Service (ADDS)

Output produced by METARs form (0255 UTC 25 May 2017)
found at http://www.aviationweather.gov/adds/metars/
 
OSDI 250300Z 00000KT CAVOK 08/04 Q1017
OSDI 242200Z 2500/2606 2200KT CAVOK 
     TEMPO 2509/2518 28010G20KT 9999 FEW030
       
OSKL 250300Z 33006KT CAVOK 12/06 Q1015
OSLK 250300Z 05004KT CAVOK 13/11 Q1015
OSLK 242200Z 2500/2524 21010KT 9999 SCT030
       
OSLK 250300Z 05004KT CAVOK 13/11 Q1015
OSLK 242200Z 2500/2524 21010KT 9999 SCT030
       
OSDI 250300Z 00000KT CAVOK 08/04 Q1017
OSDI 242200Z 2500/2606 2200KT CAVOK 
     TEMPO 2509/2518 28010G20KT 9999 FEW030
       
OSKL 250300Z 33006KT CAVOK 12/06 Q1015